sensor_id;sensor_type;location;lat;lon;timestamp;P1;P2;P0
50866;PMS7003;36839;51.946;21.002;2023-02-15T00:00:05;56.00;43.00;24.00
50866;PMS7003;36839;51.946;21.002;2023-02-15T00:02:56;57.00;45.00;26.00
50866;PMS7003;36839;51.946;21.002;2023-02-15T00:05:25;53.00;38.50;24.50
50866;PMS7003;36839;51.946;21.002;2023-02-15T00:07:52;53.00;38.00;22.00
50866;PMS7003;36839;51.946;21.002;2023-02-15T00:10:19;50.00;37.00;22.00
50866;PMS7003;36839;51.946;21.002;2023-02-15T00:12:46;54.00;42.00;25.00
50866;PMS7003;36839;51.946;21.002;2023-02-15T00:15:13;47.00;38.00;21.00
50866;PMS7003;36839;51.946;21.002;2023-02-15T00:17:40;57.50;43.50;23.50
50866;PMS7003;36839;51.946;21.002;2023-02-15T00:20:07;56.00;42.00;25.00
50866;PMS7003;36839;51.946;21.002;2023-02-15T00:22:36;51.00;39.00;23.00
50866;PMS7003;36839;51.946;21.002;2023-02-15T00:25:05;44.33;36.67;20.67
50866;PMS7003;36839;51.946;21.002;2023-02-15T00:27:32;49.00;36.00;20.00
50866;PMS7003;36839;51.946;21.002;2023-02-15T00:30:00;46.00;36.00;20.00
50866;PMS7003;36839;51.946;21.002;2023-02-15T00:32:27;54.50;41.00;24.50
50866;PMS7003;36839;51.946;21.002;2023-02-15T00:34:54;56.00;42.33;24.33
50866;PMS7003;36839;51.946;21.002;2023-02-15T00:37:21;53.00;43.00;24.00
50866;PMS7003;36839;51.946;21.002;2023-02-15T00:39:48;56.00;39.00;24.50
50866;PMS7003;36839;51.946;21.002;2023-02-15T00:42:15;50.50;38.00;22.00
50866;PMS7003;36839;51.946;21.002;2023-02-15T00:44:44;50.50;37.50;23.50
50866;PMS7003;36839;51.946;21.002;2023-02-15T00:47:11;58.00;43.00;26.00
50866;PMS7003;36839;51.946;21.002;2023-02-15T00:49:38;50.00;40.00;26.00
50866;PMS7003;36839;51.946;21.002;2023-02-15T00:52:05;57.50;41.50;26.00
50866;PMS7003;36839;51.946;21.002;2023-02-15T00:54:32;60.00;45.00;26.00
50866;PMS7003;36839;51.946;21.002;2023-02-15T00:57:01;52.00;42.00;24.00
50866;PMS7003;36839;51.946;21.002;2023-02-15T00:59:28;63.00;45.00;27.00
50866;PMS7003;36839;51.946;21.002;2023-02-15T01:01:55;50.00;40.00;25.00
50866;PMS7003;36839;51.946;21.002;2023-02-15T01:04:22;57.00;40.00;24.00
50866;PMS7003;36839;51.946;21.002;2023-02-15T01:06:48;49.00;38.00;25.00
50866;PMS7003;36839;51.946;21.002;2023-02-15T01:09:15;59.00;43.00;26.00
50866;PMS7003;36839;51.946;21.002;2023-02-15T01:11:44;59.50;45.00;27.00
50866;PMS7003;36839;51.946;21.002;2023-02-15T01:14:12;66.50;46.50;27.00
50866;PMS7003;36839;51.946;21.002;2023-02-15T01:16:42;61.00;44.00;26.00
50866;PMS7003;36839;51.946;21.002;2023-02-15T01:19:12;52.00;38.00;26.00
50866;PMS7003;36839;51.946;21.002;2023-02-15T01:21:40;53.00;43.00;26.00
50866;PMS7003;36839;51.946;21.002;2023-02-15T01:24:11;59.50;43.00;26.00
50866;PMS7003;36839;51.946;21.002;2023-02-15T01:26:46;54.50;42.00;24.00
50866;PMS7003;36839;51.946;21.002;2023-02-15T01:29:13;60.00;44.00;25.00
50866;PMS7003;36839;51.946;21.002;2023-02-15T01:31:41;54.50;41.50;24.50
50866;PMS7003;36839;51.946;21.002;2023-02-15T01:34:09;44.50;38.00;24.00
50866;PMS7003;36839;51.946;21.002;2023-02-15T01:36:36;58.00;38.00;25.00
50866;PMS7003;36839;51.946;21.002;2023-02-15T01:39:03;56.50;40.00;25.50
50866;PMS7003;36839;51.946;21.002;2023-02-15T01:41:30;57.00;39.00;24.00
50866;PMS7003;36839;51.946;21.002;2023-02-15T01:43:58;51.00;38.00;24.00
50866;PMS7003;36839;51.946;21.002;2023-02-15T01:46:30;58.00;39.50;23.00
50866;PMS7003;36839;51.946;21.002;2023-02-15T01:49:12;37.50;36.00;23.50
50866;PMS7003;36839;51.946;21.002;2023-02-15T01:51:43;51.00;40.00;24.00
50866;PMS7003;36839;51.946;21.002;2023-02-15T01:54:20;49.00;38.00;23.00
50866;PMS7003;36839;51.946;21.002;2023-02-15T01:56:52;40.67;37.00;23.67
50866;PMS7003;36839;51.946;21.002;2023-02-15T01:59:24;36.00;33.50;20.00
50866;PMS7003;36839;51.946;21.002;2023-02-15T02:01:52;43.00;36.00;21.00
50866;PMS7003;36839;51.946;21.002;2023-02-15T02:04:32;46.00;37.00;24.00
50866;PMS7003;36839;51.946;21.002;2023-02-15T02:07:06;41.00;36.00;20.00
50866;PMS7003;36839;51.946;21.002;2023-02-15T02:09:36;39.50;30.00;20.00
50866;PMS7003;36839;51.946;21.002;2023-02-15T02:12:03;46.00;34.00;19.00
50866;PMS7003;36839;51.946;21.002;2023-02-15T02:14:31;59.00;39.00;23.00
50866;PMS7003;36839;51.946;21.002;2023-02-15T02:17:01;50.00;39.00;20.00
50866;PMS7003;36839;51.946;21.002;2023-02-15T02:22:33;42.00;36.00;21.00
50866;PMS7003;36839;51.946;21.002;2023-02-15T02:36:55;34.00;27.00;18.00
50866;PMS7003;36839;51.946;21.002;2023-02-15T02:39:33;35.50;26.00;15.00
50866;PMS7003;36839;51.946;21.002;2023-02-15T02:44:48;37.00;26.00;16.00
50866;PMS7003;36839;51.946;21.002;2023-02-15T02:47:22;33.00;29.00;18.00
50866;PMS7003;36839;51.946;21.002;2023-02-15T02:49:59;39.00;32.00;19.00
50866;PMS7003;36839;51.946;21.002;2023-02-15T02:52:38;42.00;33.00;19.00
50866;PMS7003;36839;51.946;21.002;2023-02-15T02:55:09;29.00;25.00;17.00
50866;PMS7003;36839;51.946;21.002;2023-02-15T03:00:46;45.50;34.50;21.00
50866;PMS7003;36839;51.946;21.002;2023-02-15T03:03:36;42.00;30.00;21.00
50866;PMS7003;36839;51.946;21.002;2023-02-15T03:08:47;38.00;30.00;20.00
50866;PMS7003;36839;51.946;21.002;2023-02-15T03:11:17;36.50;32.00;18.00
50866;PMS7003;36839;51.946;21.002;2023-02-15T03:16:13;34.00;27.00;13.00
50866;PMS7003;36839;51.946;21.002;2023-02-15T03:18:57;41.00;35.67;19.00
50866;PMS7003;36839;51.946;21.002;2023-02-15T03:21:48;45.00;35.00;22.00
50866;PMS7003;36839;51.946;21.002;2023-02-15T03:24:25;44.00;32.00;20.00
50866;PMS7003;36839;51.946;21.002;2023-02-15T03:26:58;38.00;30.00;18.00
50866;PMS7003;36839;51.946;21.002;2023-02-15T03:29:29;37.00;28.00;19.00
50866;PMS7003;36839;51.946;21.002;2023-02-15T03:31:59;39.00;32.00;16.00
50866;PMS7003;36839;51.946;21.002;2023-02-15T03:34:29;45.00;32.00;20.00
50866;PMS7003;36839;51.946;21.002;2023-02-15T03:37:05;46.00;36.50;20.00
50866;PMS7003;36839;51.946;21.002;2023-02-15T03:43:38;34.00;30.00;14.50
50866;PMS7003;36839;51.946;21.002;2023-02-15T03:49:04;34.00;29.50;17.50
50866;PMS7003;36839;51.946;21.002;2023-02-15T03:51:40;36.00;29.00;18.00
50866;PMS7003;36839;51.946;21.002;2023-02-15T03:54:17;37.00;25.00;13.50
50866;PMS7003;36839;51.946;21.002;2023-02-15T03:57:15;37.00;30.00;18.00
50866;PMS7003;36839;51.946;21.002;2023-02-15T04:00:24;26.00;24.00;17.00
50866;PMS7003;36839;51.946;21.002;2023-02-15T04:08:30;36.00;31.00;17.00
50866;PMS7003;36839;51.946;21.002;2023-02-15T04:13:42;37.00;31.00;16.00
50866;PMS7003;36839;51.946;21.002;2023-02-15T04:24:11;36.00;29.00;15.00
50866;PMS7003;36839;51.946;21.002;2023-02-15T04:26:58;31.00;26.00;15.00
50866;PMS7003;36839;51.946;21.002;2023-02-15T04:29:26;38.00;29.00;16.00
50866;PMS7003;36839;51.946;21.002;2023-02-15T04:34:22;33.00;25.00;14.00
50866;PMS7003;36839;51.946;21.002;2023-02-15T04:36:49;36.00;27.00;14.50
50866;PMS7003;36839;51.946;21.002;2023-02-15T04:41:44;33.00;24.00;14.00
50866;PMS7003;36839;51.946;21.002;2023-02-15T04:44:13;35.00;23.50;13.00
50866;PMS7003;36839;51.946;21.002;2023-02-15T04:46:40;27.00;20.00;14.00
50866;PMS7003;36839;51.946;21.002;2023-02-15T04:49:07;32.67;25.67;13.33
50866;PMS7003;36839;51.946;21.002;2023-02-15T04:51:35;30.00;24.00;14.00
50866;PMS7003;36839;51.946;21.002;2023-02-15T04:54:02;27.50;22.50;12.00
50866;PMS7003;36839;51.946;21.002;2023-02-15T04:56:30;28.33;23.00;13.67
50866;PMS7003;36839;51.946;21.002;2023-02-15T05:01:25;27.00;23.00;12.00
50866;PMS7003;36839;51.946;21.002;2023-02-15T05:03:52;27.00;20.00;14.00
50866;PMS7003;36839;51.946;21.002;2023-02-15T05:06:19;32.00;25.00;14.00
50866;PMS7003;36839;51.946;21.002;2023-02-15T05:08:46;20.00;18.67;14.00
50866;PMS7003;36839;51.946;21.002;2023-02-15T05:11:13;43.00;25.50;13.00
50866;PMS7003;36839;51.946;21.002;2023-02-15T05:13:40;29.50;20.00;13.00
50866;PMS7003;36839;51.946;21.002;2023-02-15T05:16:07;28.00;20.00;12.00
50866;PMS7003;36839;51.946;21.002;2023-02-15T05:18:36;33.00;23.50;13.50
50866;PMS7003;36839;51.946;21.002;2023-02-15T05:21:03;23.50;19.00;12.00
50866;PMS7003;36839;51.946;21.002;2023-02-15T05:23:30;25.00;22.00;11.00
50866;PMS7003;36839;51.946;21.002;2023-02-15T05:25:57;36.00;23.00;13.00
50866;PMS7003;36839;51.946;21.002;2023-02-15T05:28:43;26.00;26.00;14.00
50866;PMS7003;36839;51.946;21.002;2023-02-15T05:31:15;33.50;20.50;12.00
50866;PMS7003;36839;51.946;21.002;2023-02-15T05:33:45;32.50;27.50;14.50
50866;PMS7003;36839;51.946;21.002;2023-02-15T05:36:13;31.00;27.00;16.00
50866;PMS7003;36839;51.946;21.002;2023-02-15T05:38:41;36.00;27.00;17.00
50866;PMS7003;36839;51.946;21.002;2023-02-15T05:41:08;35.00;25.00;13.00
50866;PMS7003;36839;51.946;21.002;2023-02-15T05:43:37;49.50;32.50;17.50
50866;PMS7003;36839;51.946;21.002;2023-02-15T05:46:06;30.00;28.00;14.00
50866;PMS7003;36839;51.946;21.002;2023-02-15T05:48:37;44.00;33.00;20.00
50866;PMS7003;36839;51.946;21.002;2023-02-15T05:51:08;33.00;29.00;14.00
50866;PMS7003;36839;51.946;21.002;2023-02-15T05:53:40;34.50;26.50;14.50
50866;PMS7003;36839;51.946;21.002;2023-02-15T05:56:08;34.00;28.00;19.00
50866;PMS7003;36839;51.946;21.002;2023-02-15T05:58:37;37.50;23.00;15.00
50866;PMS7003;36839;51.946;21.002;2023-02-15T06:01:11;32.00;22.00;11.00
50866;PMS7003;36839;51.946;21.002;2023-02-15T06:03:44;47.50;34.50;18.50
50866;PMS7003;36839;51.946;21.002;2023-02-15T06:06:13;36.00;28.00;17.00
50866;PMS7003;36839;51.946;21.002;2023-02-15T06:08:41;36.00;28.00;17.50
50866;PMS7003;36839;51.946;21.002;2023-02-15T06:11:07;47.00;39.00;23.00
50866;PMS7003;36839;51.946;21.002;2023-02-15T06:13:35;53.00;38.00;20.00
50866;PMS7003;36839;51.946;21.002;2023-02-15T06:20:56;48.00;34.00;18.00
50866;PMS7003;36839;51.946;21.002;2023-02-15T06:23:23;43.00;36.00;19.00
50866;PMS7003;36839;51.946;21.002;2023-02-15T06:25:50;37.00;26.50;18.00
50866;PMS7003;36839;51.946;21.002;2023-02-15T06:28:17;51.00;36.00;21.00
50866;PMS7003;36839;51.946;21.002;2023-02-15T06:30:44;49.00;38.00;20.50
50866;PMS7003;36839;51.946;21.002;2023-02-15T06:33:14;34.00;30.50;17.50
50866;PMS7003;36839;51.946;21.002;2023-02-15T06:35:41;41.00;30.00;16.00
50866;PMS7003;36839;51.946;21.002;2023-02-15T06:38:08;46.00;33.00;21.00
50866;PMS7003;36839;51.946;21.002;2023-02-15T06:40:35;45.00;34.00;20.00
50866;PMS7003;36839;51.946;21.002;2023-02-15T06:43:03;55.00;37.00;19.00
50866;PMS7003;36839;51.946;21.002;2023-02-15T06:45:30;52.00;39.00;20.00
50866;PMS7003;36839;51.946;21.002;2023-02-15T06:47:58;40.00;33.00;19.00
50866;PMS7003;36839;51.946;21.002;2023-02-15T06:50:26;37.50;30.50;15.00
50866;PMS7003;36839;51.946;21.002;2023-02-15T06:52:57;52.00;35.50;21.00
50866;PMS7003;36839;51.946;21.002;2023-02-15T06:55:24;39.00;33.00;15.00
50866;PMS7003;36839;51.946;21.002;2023-02-15T06:57:52;46.50;30.00;18.50
50866;PMS7003;36839;51.946;21.002;2023-02-15T07:00:19;50.00;36.00;19.00
50866;PMS7003;36839;51.946;21.002;2023-02-15T07:02:59;36.50;27.50;14.50
50866;PMS7003;36839;51.946;21.002;2023-02-15T07:05:26;51.00;36.00;19.00
50866;PMS7003;36839;51.946;21.002;2023-02-15T07:07:58;39.00;31.00;15.00
50866;PMS7003;36839;51.946;21.002;2023-02-15T07:10:26;33.50;23.00;13.50
50866;PMS7003;36839;51.946;21.002;2023-02-15T07:15:20;54.00;39.00;20.00
50866;PMS7003;36839;51.946;21.002;2023-02-15T07:17:48;40.00;28.00;18.00
50866;PMS7003;36839;51.946;21.002;2023-02-15T07:20:20;42.00;31.50;18.50
50866;PMS7003;36839;51.946;21.002;2023-02-15T07:22:49;49.00;38.00;18.00
50866;PMS7003;36839;51.946;21.002;2023-02-15T07:25:17;50.00;35.00;19.00
50866;PMS7003;36839;51.946;21.002;2023-02-15T07:27:44;49.00;33.00;19.00
50866;PMS7003;36839;51.946;21.002;2023-02-15T07:30:13;53.00;39.00;22.00
50866;PMS7003;36839;51.946;21.002;2023-02-15T07:32:43;40.00;36.00;21.00
50866;PMS7003;36839;51.946;21.002;2023-02-15T07:35:29;40.00;26.00;17.00
50866;PMS7003;36839;51.946;21.002;2023-02-15T07:37:56;55.50;38.00;23.00
50866;PMS7003;36839;51.946;21.002;2023-02-15T07:40:24;55.50;40.50;27.00
50866;PMS7003;36839;51.946;21.002;2023-02-15T07:42:52;61.00;45.00;29.00
50866;PMS7003;36839;51.946;21.002;2023-02-15T07:45:22;68.00;47.00;30.00
50866;PMS7003;36839;51.946;21.002;2023-02-15T07:47:49;66.00;50.00;33.00
50866;PMS7003;36839;51.946;21.002;2023-02-15T07:50:16;53.50;41.50;24.00
50866;PMS7003;36839;51.946;21.002;2023-02-15T07:52:43;40.00;28.00;13.00
50866;PMS7003;36839;51.946;21.002;2023-02-15T07:55:11;52.00;34.00;20.00
50866;PMS7003;36839;51.946;21.002;2023-02-15T07:57:43;42.00;35.50;19.00
50866;PMS7003;36839;51.946;21.002;2023-02-15T08:00:15;42.00;31.50;16.50
50866;PMS7003;36839;51.946;21.002;2023-02-15T08:02:53;45.00;33.00;19.00
50866;PMS7003;36839;51.946;21.002;2023-02-15T08:05:40;57.50;39.00;20.50
50866;PMS7003;36839;51.946;21.002;2023-02-15T08:08:10;40.00;35.00;19.00
50866;PMS7003;36839;51.946;21.002;2023-02-15T08:11:06;44.00;35.00;22.00
50866;PMS7003;36839;51.946;21.002;2023-02-15T08:13:53;37.00;28.00;16.00
50866;PMS7003;36839;51.946;21.002;2023-02-15T08:16:29;45.00;29.50;15.50
50866;PMS7003;36839;51.946;21.002;2023-02-15T08:19:23;34.00;26.00;15.00
50866;PMS7003;36839;51.946;21.002;2023-02-15T08:21:54;32.00;26.00;14.00
50866;PMS7003;36839;51.946;21.002;2023-02-15T08:24:26;41.50;25.50;14.00
50866;PMS7003;36839;51.946;21.002;2023-02-15T08:26:56;34.33;29.33;17.00
50866;PMS7003;36839;51.946;21.002;2023-02-15T08:29:28;29.00;22.00;12.00
50866;PMS7003;36839;51.946;21.002;2023-02-15T08:32:00;44.00;32.50;17.00
50866;PMS7003;36839;51.946;21.002;2023-02-15T08:34:36;34.00;23.00;12.00
50866;PMS7003;36839;51.946;21.002;2023-02-15T08:37:05;30.00;19.00;12.00
50866;PMS7003;36839;51.946;21.002;2023-02-15T08:39:32;32.00;26.00;15.00
50866;PMS7003;36839;51.946;21.002;2023-02-15T08:42:15;36.00;24.00;14.00
50866;PMS7003;36839;51.946;21.002;2023-02-15T08:44:48;29.00;24.00;13.00
50866;PMS7003;36839;51.946;21.002;2023-02-15T08:47:17;28.50;23.50;15.50
50866;PMS7003;36839;51.946;21.002;2023-02-15T08:49:43;33.50;23.00;15.50
50866;PMS7003;36839;51.946;21.002;2023-02-15T08:52:11;34.00;24.00;14.00
50866;PMS7003;36839;51.946;21.002;2023-02-15T08:54:38;37.00;28.00;15.00
50866;PMS7003;36839;51.946;21.002;2023-02-15T08:57:05;38.00;28.00;14.00
50866;PMS7003;36839;51.946;21.002;2023-02-15T08:59:35;31.00;24.00;14.00
50866;PMS7003;36839;51.946;21.002;2023-02-15T09:02:02;47.00;33.50;19.50
50866;PMS7003;36839;51.946;21.002;2023-02-15T09:04:32;36.00;34.00;19.00
50866;PMS7003;36839;51.946;21.002;2023-02-15T09:06:59;44.00;29.00;17.00
50866;PMS7003;36839;51.946;21.002;2023-02-15T09:09:28;30.00;22.00;14.00
50866;PMS7003;36839;51.946;21.002;2023-02-15T09:11:55;31.00;25.00;15.00
50866;PMS7003;36839;51.946;21.002;2023-02-15T09:14:23;31.00;27.00;19.00
50866;PMS7003;36839;51.946;21.002;2023-02-15T09:16:52;39.00;29.00;14.00
50866;PMS7003;36839;51.946;21.002;2023-02-15T09:19:20;40.50;32.50;18.00
50866;PMS7003;36839;51.946;21.002;2023-02-15T09:21:54;32.00;28.00;15.00
50866;PMS7003;36839;51.946;21.002;2023-02-15T09:24:22;26.00;21.00;13.00
50866;PMS7003;36839;51.946;21.002;2023-02-15T09:26:52;39.00;31.00;15.00
50866;PMS7003;36839;51.946;21.002;2023-02-15T09:29:19;36.00;32.00;18.00
50866;PMS7003;36839;51.946;21.002;2023-02-15T09:31:47;32.00;27.00;14.00
50866;PMS7003;36839;51.946;21.002;2023-02-15T09:34:17;41.50;28.00;17.50
50866;PMS7003;36839;51.946;21.002;2023-02-15T09:36:47;40.50;29.50;18.50
50866;PMS7003;36839;51.946;21.002;2023-02-15T09:51:05;32.00;27.00;14.00
50866;PMS7003;36839;51.946;21.002;2023-02-15T09:59:01;52.00;38.00;22.50
50866;PMS7003;36839;51.946;21.002;2023-02-15T10:28:53;46.33;32.67;18.00
50866;PMS7003;36839;51.946;21.002;2023-02-15T10:31:31;56.50;42.00;26.50
50866;PMS7003;36839;51.946;21.002;2023-02-15T10:34:17;46.00;36.00;20.00
50866;PMS7003;36839;51.946;21.002;2023-02-15T10:37:24;49.00;35.50;21.50
50866;PMS7003;36839;51.946;21.002;2023-02-15T10:46:04;56.00;37.00;23.00
50866;PMS7003;36839;51.946;21.002;2023-02-15T10:48:57;46.50;34.00;20.00
50866;PMS7003;36839;51.946;21.002;2023-02-15T10:54:19;42.00;33.00;20.00
50866;PMS7003;36839;51.946;21.002;2023-02-15T11:05:31;46.50;34.00;21.00
50866;PMS7003;36839;51.946;21.002;2023-02-15T11:08:11;39.00;33.00;19.00
50866;PMS7003;36839;51.946;21.002;2023-02-15T11:10:39;42.50;32.50;13.00
50866;PMS7003;36839;51.946;21.002;2023-02-15T11:13:13;44.00;36.00;19.00
50866;PMS7003;36839;51.946;21.002;2023-02-15T11:19:08;43.00;36.00;18.50
50866;PMS7003;36839;51.946;21.002;2023-02-15T11:21:50;54.00;38.00;20.00
50866;PMS7003;36839;51.946;21.002;2023-02-15T11:24:23;42.00;30.00;19.00
50866;PMS7003;36839;51.946;21.002;2023-02-15T11:26:57;41.00;35.00;18.00
50866;PMS7003;36839;51.946;21.002;2023-02-15T11:32:01;46.50;33.50;19.00
50866;PMS7003;36839;51.946;21.002;2023-02-15T11:34:47;55.50;36.50;24.00
50866;PMS7003;36839;51.946;21.002;2023-02-15T11:37:30;38.00;32.00;20.00
50866;PMS7003;36839;51.946;21.002;2023-02-15T11:40:02;46.00;34.00;20.00
50866;PMS7003;36839;51.946;21.002;2023-02-15T11:42:43;41.00;34.00;20.00
50866;PMS7003;36839;51.946;21.002;2023-02-15T11:45:21;47.00;34.00;19.00
50866;PMS7003;36839;51.946;21.002;2023-02-15T11:47:50;54.00;36.00;19.00
50866;PMS7003;36839;51.946;21.002;2023-02-15T11:50:19;39.00;32.50;18.50
50866;PMS7003;36839;51.946;21.002;2023-02-15T11:52:56;51.00;36.00;19.00
50866;PMS7003;36839;51.946;21.002;2023-02-15T11:55:27;54.00;34.00;19.00
50866;PMS7003;36839;51.946;21.002;2023-02-15T12:00:52;46.00;37.00;22.00
50866;PMS7003;36839;51.946;21.002;2023-02-15T12:03:44;54.50;39.00;22.00
50866;PMS7003;36839;51.946;21.002;2023-02-15T12:09:06;54.00;38.00;22.00
50866;PMS7003;36839;51.946;21.002;2023-02-15T12:11:45;58.00;40.50;24.00
50866;PMS7003;36839;51.946;21.002;2023-02-15T12:14:13;51.00;38.00;22.00
50866;PMS7003;36839;51.946;21.002;2023-02-15T12:16:47;51.00;38.00;24.00
50866;PMS7003;36839;51.946;21.002;2023-02-15T12:21:50;56.00;38.00;22.00
50866;PMS7003;36839;51.946;21.002;2023-02-15T12:26:57;40.00;31.00;16.00
50866;PMS7003;36839;51.946;21.002;2023-02-15T12:29:26;47.00;38.00;21.00
50866;PMS7003;36839;51.946;21.002;2023-02-15T12:31:58;48.00;28.00;18.00
50866;PMS7003;36839;51.946;21.002;2023-02-15T12:34:29;49.00;34.00;23.00
50866;PMS7003;36839;51.946;21.002;2023-02-15T12:37:19;43.50;34.50;19.50
50866;PMS7003;36839;51.946;21.002;2023-02-15T12:39:54;49.00;38.00;20.00
50866;PMS7003;36839;51.946;21.002;2023-02-15T12:42:25;35.50;33.00;22.00
50866;PMS7003;36839;51.946;21.002;2023-02-15T12:45:20;54.00;40.00;20.00
50866;PMS7003;36839;51.946;21.002;2023-02-15T12:48:16;45.00;34.00;19.00
50866;PMS7003;36839;51.946;21.002;2023-02-15T12:56:02;58.00;46.00;29.00
50866;PMS7003;36839;51.946;21.002;2023-02-15T12:58:36;56.00;37.00;23.00
50866;PMS7003;36839;51.946;21.002;2023-02-15T13:01:24;51.00;36.50;19.00
50866;PMS7003;36839;51.946;21.002;2023-02-15T13:03:56;38.00;26.00;10.00
50866;PMS7003;36839;51.946;21.002;2023-02-15T13:06:32;39.00;32.00;16.00
50866;PMS7003;36839;51.946;21.002;2023-02-15T13:09:06;46.00;38.00;23.00
50866;PMS7003;36839;51.946;21.002;2023-02-15T13:11:47;47.50;38.00;22.00
50866;PMS7003;36839;51.946;21.002;2023-02-15T13:14:18;48.00;31.50;17.00
50866;PMS7003;36839;51.946;21.002;2023-02-15T13:16:49;48.00;35.33;19.00
50866;PMS7003;36839;51.946;21.002;2023-02-15T13:19:26;35.00;32.00;19.50
50866;PMS7003;36839;51.946;21.002;2023-02-15T13:22:22;50.00;34.00;22.50
50866;PMS7003;36839;51.946;21.002;2023-02-15T13:24:59;49.50;34.50;18.50
50866;PMS7003;36839;51.946;21.002;2023-02-15T13:27:40;42.00;33.00;18.00
50866;PMS7003;36839;51.946;21.002;2023-02-15T13:30:35;44.00;33.00;18.50
50866;PMS7003;36839;51.946;21.002;2023-02-15T13:35:56;37.00;29.00;17.00
50866;PMS7003;36839;51.946;21.002;2023-02-15T13:38:49;46.00;36.00;19.00
50866;PMS7003;36839;51.946;21.002;2023-02-15T14:03:25;45.00;32.50;21.00
50866;PMS7003;36839;51.946;21.002;2023-02-15T14:06:14;44.50;32.00;20.00
50866;PMS7003;36839;51.946;21.002;2023-02-15T14:11:38;42.50;36.00;19.50
50866;PMS7003;36839;51.946;21.002;2023-02-15T14:23:01;42.00;32.00;19.00
50866;PMS7003;36839;51.946;21.002;2023-02-15T14:31:38;32.00;24.00;12.00
50866;PMS7003;36839;51.946;21.002;2023-02-15T14:34:26;43.00;36.00;21.00
50866;PMS7003;36839;51.946;21.002;2023-02-15T14:36:59;48.00;39.00;24.00
50866;PMS7003;36839;51.946;21.002;2023-02-15T14:39:52;48.00;37.00;24.00
50866;PMS7003;36839;51.946;21.002;2023-02-15T14:43:06;45.00;39.00;22.00
50866;PMS7003;36839;51.946;21.002;2023-02-15T14:50:41;49.00;38.00;23.00
50866;PMS7003;36839;51.946;21.002;2023-02-15T14:58:58;55.00;36.00;23.00
50866;PMS7003;36839;51.946;21.002;2023-02-15T15:01:50;55.00;38.00;22.00
50866;PMS7003;36839;51.946;21.002;2023-02-15T15:07:25;53.00;38.00;20.00
50866;PMS7003;36839;51.946;21.002;2023-02-15T15:15:16;47.00;39.00;24.00
50866;PMS7003;36839;51.946;21.002;2023-02-15T15:18:42;47.00;38.00;22.00
50866;PMS7003;36839;51.946;21.002;2023-02-15T15:21:34;47.00;37.00;25.00
50866;PMS7003;36839;51.946;21.002;2023-02-15T15:33:06;47.00;39.00;24.00
50866;PMS7003;36839;51.946;21.002;2023-02-15T15:44:54;44.00;36.00;24.00
50866;PMS7003;36839;51.946;21.002;2023-02-15T15:47:58;51.00;40.00;24.00
50866;PMS7003;36839;51.946;21.002;2023-02-15T15:50:47;31.00;29.00;22.00
50866;PMS7003;36839;51.946;21.002;2023-02-15T15:53:24;56.00;39.00;24.00
50866;PMS7003;36839;51.946;21.002;2023-02-15T15:55:56;48.50;37.00;22.00
50866;PMS7003;36839;51.946;21.002;2023-02-15T15:58:30;41.50;35.00;18.50
50866;PMS7003;36839;51.946;21.002;2023-02-15T16:00:59;47.00;36.00;21.00
50866;PMS7003;36839;51.946;21.002;2023-02-15T16:03:35;49.00;37.00;24.00
50866;PMS7003;36839;51.946;21.002;2023-02-15T16:06:02;54.00;37.00;23.00
50866;PMS7003;36839;51.946;21.002;2023-02-15T16:08:39;47.00;35.50;20.50
50866;PMS7003;36839;51.946;21.002;2023-02-15T16:11:19;45.50;35.50;20.50
50866;PMS7003;36839;51.946;21.002;2023-02-15T16:14:17;39.00;36.00;22.00
50866;PMS7003;36839;51.946;21.002;2023-02-15T16:17:06;47.00;34.00;19.50
50866;PMS7003;36839;51.946;21.002;2023-02-15T16:19:43;37.00;32.00;19.00
50866;PMS7003;36839;51.946;21.002;2023-02-15T16:22:13;39.00;27.00;15.00
50866;PMS7003;36839;51.946;21.002;2023-02-15T16:27:36;51.00;34.00;22.00
50866;PMS7003;36839;51.946;21.002;2023-02-15T16:35:40;53.00;39.00;26.00
50866;PMS7003;36839;51.946;21.002;2023-02-15T16:39:07;49.00;39.00;23.50
50866;PMS7003;36839;51.946;21.002;2023-02-15T16:41:10;51.00;36.00;23.00
50866;PMS7003;36839;51.946;21.002;2023-02-15T16:43:41;45.50;35.50;20.50
50866;PMS7003;36839;51.946;21.002;2023-02-15T16:46:17;45.00;39.00;24.00
50866;PMS7003;36839;51.946;21.002;2023-02-15T16:49:19;56.00;41.00;25.00
50866;PMS7003;36839;51.946;21.002;2023-02-15T16:52:04;55.00;35.00;18.00
50866;PMS7003;36839;51.946;21.002;2023-02-15T16:54:35;60.00;44.00;26.00
50866;PMS7003;36839;51.946;21.002;2023-02-15T16:57:03;48.00;40.00;23.00
50866;PMS7003;36839;51.946;21.002;2023-02-15T16:59:38;63.50;45.00;26.50
50866;PMS7003;36839;51.946;21.002;2023-02-15T17:02:27;52.00;42.00;26.00
50866;PMS7003;36839;51.946;21.002;2023-02-15T17:05:01;52.00;39.00;27.00
50866;PMS7003;36839;51.946;21.002;2023-02-15T17:07:30;59.00;43.00;26.00
50866;PMS7003;36839;51.946;21.002;2023-02-15T17:10:00;50.50;42.00;26.50
50866;PMS7003;36839;51.946;21.002;2023-02-15T17:12:46;58.00;43.00;28.00
50866;PMS7003;36839;51.946;21.002;2023-02-15T17:18:19;64.00;45.00;28.00
50866;PMS7003;36839;51.946;21.002;2023-02-15T17:20:50;57.00;42.50;24.00
50866;PMS7003;36839;51.946;21.002;2023-02-15T17:25:51;58.00;41.50;25.00
50866;PMS7003;36839;51.946;21.002;2023-02-15T17:28:21;61.00;44.00;29.00
50866;PMS7003;36839;51.946;21.002;2023-02-15T17:30:53;56.50;41.50;25.50
50866;PMS7003;36839;51.946;21.002;2023-02-15T17:33:25;64.50;46.50;28.00
50866;PMS7003;36839;51.946;21.002;2023-02-15T17:36:21;60.50;45.50;27.50
50866;PMS7003;36839;51.946;21.002;2023-02-15T17:41:30;59.00;43.00;26.00
50866;PMS7003;36839;51.946;21.002;2023-02-15T17:44:26;63.67;48.67;28.33
50866;PMS7003;36839;51.946;21.002;2023-02-15T17:46:54;55.50;43.00;24.00
50866;PMS7003;36839;51.946;21.002;2023-02-15T17:49:24;65.00;46.00;28.00
50866;PMS7003;36839;51.946;21.002;2023-02-15T17:52:01;57.50;43.00;26.00
50866;PMS7003;36839;51.946;21.002;2023-02-15T17:54:31;59.00;44.00;27.00
50866;PMS7003;36839;51.946;21.002;2023-02-15T17:57:19;58.00;45.00;28.00
50866;PMS7003;36839;51.946;21.002;2023-02-15T17:59:49;56.00;42.00;25.00
50866;PMS7003;36839;51.946;21.002;2023-02-15T18:02:36;55.00;39.00;25.00
50866;PMS7003;36839;51.946;21.002;2023-02-15T18:05:23;61.50;43.50;27.00
50866;PMS7003;36839;51.946;21.002;2023-02-15T18:08:13;55.00;45.50;28.00
50866;PMS7003;36839;51.946;21.002;2023-02-15T18:11:01;51.50;38.50;24.50
50866;PMS7003;36839;51.946;21.002;2023-02-15T18:13:50;62.00;45.00;26.00